This is the latest recevied weather packets stored in our database for station/object PY2FLB-13. If no packets are shown the sender has not sent any weather packets the latest 10 day(s).
| Time | Temp. | Humidity | Pressure | Rain* | Wind** | Luminosity | Snow |
|---|---|---|---|---|---|---|---|
| 1777804334 | 21.67° C | 55% | 1017 hPa | - | - | - | - |
| 1777804034 | 22.22° C | 55% | 1017 hPa | - | - | - | - |
| 1777803734 | 21.67° C | 56% | 1017.1 hPa | - | - | - | - |
| 1777803434 | 21.67° C | 56% | 1017 hPa | - | - | - | - |
| 1777803134 | 21.67° C | 56% | 1016.9 hPa | - | - | - | - |
| 1777802834 | 21.67° C | 56% | 1016.8 hPa | - | - | - | - |
| 1777802534 | 21.67° C | 56% | 1016.7 hPa | - | - | - | - |
| 1777802234 | 22.22° C | 55% | 1016.5 hPa | - | - | - | - |
| 1777801934 | 21.11° C | 57% | 1016.6 hPa | - | - | - | - |
| 1777801634 | 22.78° C | 53% | 1016.2 hPa | - | - | - | - |
| 1777801334 | 21.11° C | 56% | 1016.3 hPa | - | - | - | - |
| 1777801035 | 21.67° C | 56% | 1016.3 hPa | - | - | - | - |
| 1777800734 | 21.67° C | 55% | 1016.1 hPa | - | - | - | - |
| 1777800434 | 21.67° C | 56% | 1016.2 hPa | - | - | - | - |
| 1777800134 | 22.22° C | 54% | 1016 hPa | - | - | - | - |
| 1777799834 | 21.67° C | 55% | 1015.8 hPa | - | - | - | - |
| 1777799534 | 22.22° C | 53% | 1015.9 hPa | - | - | - | - |
| 1777799234 | 21.67° C | 56% | 1015.6 hPa | - | - | - | - |
| 1777798934 | 22.22° C | 54% | 1015.5 hPa | - | - | - | - |
| 1777798634 | 22.22° C | 56% | 1015.4 hPa | - | - | - | - |
| 1777798334 | 22.22° C | 57% | 1015.5 hPa | - | - | - | - |
| 1777798034 | 22.78° C | 56% | 1015 hPa | - | - | - | - |
| 1777797734 | 23.33° C | 54% | 1014.7 hPa | - | - | - | - |
| 1777797434 | 23.33° C | 54% | 1014.8 hPa | - | - | - | - |
| 1777797134 | 22.78° C | 55% | 1014.8 hPa | - | - | - | - |
* Rain since midnight (hover to see other rain measurements)
** Current wind speed in m/s (hover to see current wind gust speed)